Loring, Montana
Current Conditions -  °F | °C
As of 1:53 PM on Saturday 25 Oct 2014 (Local Time) from KGGW Reporting Station
Clear Clear  
Wind Chill: 63°   Ceiling: Unl
Heat Index: 63°   Visibility: 10mi
Dew Point: 34°   Wind: 17mph
Humidity: 34%   Direction: 110°ESE
Pressure: 29.92"   Gusts: NA
Location:  48.79°N, 107.86°W
Report Text: KGGW 251953Z AUTO 11015KT 10SM CLR 17/01 A2992 RMK AO2 SLP136 T01720011 $
Loading
Personal Weather Stations






























Interactive Weather Map
Tropical Storm Tracking
New forecast layout! Learn more

10-Day Weather Forecast

Advertisements
Track Severe Weather on mobile